createdAt,value
2018-04-28T00:01:48.886Z,17.26
2018-04-28T00:04:19.008Z,17.15
2018-04-28T00:06:49.134Z,17.08
2018-04-28T00:09:19.237Z,17.06
2018-04-28T00:11:50.065Z,16.95
2018-04-28T00:14:20.506Z,16.93
2018-04-28T00:16:50.422Z,16.81
2018-04-28T00:19:21.252Z,16.70
2018-04-28T00:21:51.271Z,16.60
2018-04-28T00:24:22.426Z,16.66
2018-04-28T00:27:04.523Z,16.63
2018-04-28T00:29:34.606Z,16.64
2018-04-28T00:32:08.452Z,16.75
2018-04-28T00:34:50.324Z,16.52
2018-04-28T00:37:22.005Z,16.35
2018-04-28T00:40:13.275Z,16.17
2018-04-28T00:42:44.247Z,16.10
2018-04-28T00:45:25.940Z,16.14
2018-04-28T00:47:56.405Z,16.06
2018-04-28T00:50:29.355Z,16.17
2018-04-28T00:53:00.139Z,16.20
2018-04-28T00:55:39.336Z,16.11
2018-04-28T00:58:31.874Z,16.09
2018-04-28T01:01:11.321Z,16.06
2018-04-28T01:03:44.835Z,16.11
2018-04-28T01:06:14.748Z,16.04
2018-04-28T01:08:44.850Z,16.09
2018-04-28T01:11:16.504Z,15.94
2018-04-28T01:13:53.281Z,15.92
2018-04-28T01:16:23.884Z,15.96
2018-04-28T01:18:58.017Z,15.91
2018-04-28T01:21:44.900Z,15.77
2018-04-28T01:24:26.543Z,15.75
2018-04-28T01:27:17.129Z,15.65
2018-04-28T01:30:08.549Z,15.74
2018-04-28T01:32:56.080Z,15.81
2018-04-28T01:35:36.757Z,15.91
2018-04-28T01:38:07.688Z,15.96
2018-04-28T01:40:39.544Z,16.04
2018-04-28T01:43:31.167Z,16.17
2018-04-28T01:46:13.197Z,16.24
2018-04-28T01:49:01.633Z,16.20
2018-04-28T01:51:37.528Z,16.26
2018-04-28T01:54:20.357Z,16.25
2018-04-28T01:57:08.741Z,16.40
2018-04-28T01:59:44.607Z,16.41
2018-04-28T02:02:17.483Z,16.38
2018-04-28T02:05:07.056Z,16.41
2018-04-28T02:07:37.903Z,16.42
2018-04-28T02:10:07.927Z,16.46
2018-04-28T02:12:58.421Z,16.58
2018-04-28T02:15:30.587Z,16.60
2018-04-28T02:18:13.157Z,16.61
2018-04-28T02:20:55.214Z,16.77
2018-04-28T02:23:44.051Z,16.74
2018-04-28T02:26:14.896Z,16.77
2018-04-28T02:28:47.756Z,16.75
2018-04-28T02:31:37.556Z,16.90
2018-04-28T02:34:27.239Z,16.96
2018-04-28T02:37:15.291Z,16.90
2018-04-28T02:39:53.670Z,17.03
2018-04-28T02:42:34.666Z,17.07
2018-04-28T02:45:20.346Z,17.11
2018-04-28T02:48:07.218Z,17.21
2018-04-28T02:50:55.313Z,17.17
2018-04-28T02:53:32.040Z,17.19
2018-04-28T02:56:19.975Z,17.16
2018-04-28T02:58:53.525Z,17.13
2018-04-28T03:01:40.130Z,17.08
2018-04-28T03:04:25.294Z,17.17
2018-04-28T03:07:20.817Z,17.21
2018-04-28T03:09:54.631Z,17.27
2018-04-28T03:12:24.541Z,17.32
2018-04-28T03:15:02.240Z,17.37
2018-04-28T03:17:35.011Z,17.42
2018-04-28T03:20:08.818Z,17.45
2018-04-28T03:22:40.770Z,17.51
2018-04-28T03:25:12.338Z,17.53
2018-04-28T03:27:45.545Z,17.58
2018-04-28T03:30:20.059Z,17.59
2018-04-28T03:32:50.902Z,17.51
2018-04-28T03:35:21.757Z,17.58
2018-04-28T03:38:04.047Z,17.48
2018-04-28T03:40:36.917Z,17.46
2018-04-28T03:43:27.844Z,17.46
2018-04-28T03:49:13.851Z,17.48
2018-04-28T03:51:56.863Z,17.46
2018-04-28T03:54:40.355Z,17.49
2018-04-28T03:57:32.139Z,17.57
2018-04-28T04:00:13.828Z,17.53
2018-04-28T04:02:55.812Z,17.56
2018-04-28T04:05:31.776Z,17.60
2018-04-28T04:08:18.891Z,17.64
2018-04-28T04:11:11.339Z,17.70
2018-04-28T04:13:49.751Z,17.76
2018-04-28T04:16:21.929Z,17.80
2018-04-28T04:18:57.740Z,17.86
2018-04-28T04:21:32.878Z,17.92
2018-04-28T04:24:24.852Z,17.92
2018-04-28T04:27:06.224Z,18.00
2018-04-28T04:29:58.267Z,17.99
2018-04-28T04:32:28.786Z,18.10
2018-04-28T04:35:07.558Z,18.18
2018-04-28T04:37:58.729Z,18.24
2018-04-28T04:40:46.360Z,18.27
2018-04-28T04:43:20.162Z,18.38
2018-04-28T04:45:57.046Z,18.55
2018-04-28T04:51:31.485Z,18.54
2018-04-28T04:54:25.826Z,18.51
2018-04-28T04:57:07.667Z,18.49
2018-04-28T04:59:44.864Z,18.60
2018-04-28T05:02:20.802Z,18.67
2018-04-28T05:08:05.770Z,18.72
2018-04-28T05:10:48.121Z,18.54
2018-04-28T05:13:41.888Z,18.59
2018-04-28T05:16:32.020Z,18.62
2018-04-28T05:19:25.240Z,18.83
2018-04-28T05:22:07.239Z,18.87
2018-04-28T05:25:01.737Z,19.08
2018-04-28T05:27:47.305Z,19.10
2018-04-28T05:30:29.511Z,19.10
2018-04-28T05:36:24.340Z,19.00
2018-04-28T05:39:25.782Z,19.13
2018-04-28T05:42:18.447Z,19.14
2018-04-28T05:48:16.811Z,19.39
2018-04-28T05:51:07.333Z,19.43
2018-04-28T05:54:00.603Z,19.51
2018-04-28T05:56:52.562Z,19.65
2018-04-28T05:59:32.276Z,19.60
2018-04-28T06:02:09.063Z,19.82
2018-04-28T06:04:57.297Z,20.07
2018-04-28T06:07:42.573Z,20.23
2018-04-28T06:10:24.897Z,20.33
2018-04-28T06:13:07.332Z,20.36
2018-04-28T06:15:57.799Z,20.38
2018-04-28T06:18:35.699Z,20.40
2018-04-28T06:21:05.601Z,20.31
2018-04-28T06:23:35.619Z,20.35
2018-04-28T06:26:06.167Z,20.52
2018-04-28T06:28:37.467Z,20.59
2018-04-28T06:31:07.723Z,20.58
2018-04-28T06:33:38.660Z,20.56
2018-04-28T06:36:09.069Z,20.68
2018-04-28T06:38:39.799Z,20.59
2018-04-28T06:41:10.891Z,20.85
2018-04-28T06:43:41.278Z,20.90
2018-04-28T06:46:11.918Z,20.91
2018-04-28T06:48:42.107Z,21.22
2018-04-28T06:51:12.285Z,21.29
2018-04-28T06:53:43.426Z,21.81
2018-04-28T06:56:13.447Z,22.00
2018-04-28T06:58:43.664Z,22.10
2018-04-28T07:01:14.058Z,21.59
2018-04-28T07:03:44.108Z,21.91
2018-04-28T07:06:14.217Z,22.15
2018-04-28T07:08:44.658Z,22.27
2018-04-28T07:11:14.985Z,22.57
2018-04-28T07:13:45.615Z,23.11
2018-04-28T07:16:16.131Z,23.36
2018-04-28T07:18:47.320Z,23.28
2018-04-28T07:21:17.411Z,23.24
2018-04-28T07:23:47.420Z,23.49
2018-04-28T07:26:17.735Z,23.77
2018-04-28T07:28:47.860Z,23.93
2018-04-28T07:31:18.383Z,24.05
2018-04-28T07:33:48.409Z,24.30
2018-04-28T07:36:18.438Z,23.68
2018-04-28T07:38:48.410Z,23.72
2018-04-28T07:41:19.239Z,23.62
2018-04-28T07:43:49.297Z,23.65
2018-04-28T07:46:19.433Z,23.83
2018-04-28T07:48:49.543Z,23.87
2018-04-28T07:51:19.659Z,24.26
2018-04-28T07:53:50.405Z,24.80
2018-04-28T07:56:20.423Z,25.15
2018-04-28T07:58:50.428Z,24.60
2018-04-28T08:01:20.568Z,24.92
2018-04-28T08:03:50.785Z,24.91
2018-04-28T08:06:21.726Z,24.13
2018-04-28T08:08:52.222Z,23.58
2018-04-28T08:11:22.640Z,23.76
2018-04-28T08:13:52.993Z,23.94
2018-04-28T08:16:23.219Z,24.32
2018-04-28T08:18:53.444Z,24.45
2018-04-28T08:21:23.867Z,25.00
2018-04-28T08:23:53.780Z,25.41
2018-04-28T08:26:24.375Z,25.83
2018-04-28T08:28:54.840Z,25.50
2018-04-28T08:31:24.895Z,25.79
2018-04-28T08:33:55.185Z,25.38
2018-04-28T08:36:26.243Z,25.69
2018-04-28T08:38:56.409Z,25.75
2018-04-28T08:41:26.465Z,25.86
2018-04-28T08:43:56.487Z,26.26
2018-04-28T08:46:27.028Z,26.03
2018-04-28T08:48:58.777Z,25.18
2018-04-28T08:51:29.256Z,25.51
2018-04-28T08:53:59.391Z,25.74
2018-04-28T08:56:29.855Z,26.17
2018-04-28T08:58:59.774Z,26.42
2018-04-28T09:01:29.800Z,26.63
2018-04-28T09:04:00.328Z,26.54
2018-04-28T09:06:31.056Z,26.42
2018-04-28T09:09:01.786Z,26.30
2018-04-28T09:11:31.606Z,26.46
2018-04-28T09:14:01.411Z,26.99
2018-04-28T09:16:31.735Z,26.98
2018-04-28T09:19:01.662Z,26.80
2018-04-28T09:21:31.783Z,26.89
2018-04-28T09:24:02.618Z,27.28
2018-04-28T09:26:32.532Z,27.34
2018-04-28T09:29:03.480Z,27.11
2018-04-28T09:31:33.546Z,27.20
2018-04-28T09:34:04.221Z,27.46
2018-04-28T09:36:34.140Z,28.03
2018-04-28T09:39:04.267Z,27.79
2018-04-28T09:41:35.432Z,28.64
2018-04-28T09:44:06.088Z,28.02
2018-04-28T09:46:37.011Z,27.74
2018-04-28T09:49:07.086Z,28.50
2018-04-28T09:51:37.361Z,28.67
2018-04-28T09:54:08.043Z,27.55
2018-04-28T09:56:37.960Z,27.49
2018-04-28T09:59:08.503Z,27.48
2018-04-28T10:01:43.919Z,27.84
2018-04-28T10:04:28.381Z,27.70
2018-04-28T10:06:58.931Z,27.37
2018-04-28T10:09:29.061Z,26.94
2018-04-28T10:11:59.739Z,26.28
2018-04-28T10:14:30.298Z,26.23
2018-04-28T10:17:00.893Z,27.09
2018-04-28T10:19:31.383Z,27.29
2018-04-28T10:22:01.394Z,27.77
2018-04-28T10:24:31.300Z,27.87
2018-04-28T10:27:01.908Z,27.75
2018-04-28T10:29:32.340Z,27.72
2018-04-28T10:32:02.799Z,28.29
2018-04-28T10:34:33.228Z,28.88
2018-04-28T10:37:04.244Z,29.42
2018-04-28T10:39:34.884Z,29.55
2018-04-28T10:42:05.116Z,29.73
2018-04-28T10:44:35.439Z,29.74
2018-04-28T10:47:05.464Z,29.69
2018-04-28T10:49:35.902Z,29.83
2018-04-28T10:52:05.812Z,30.87
2018-04-28T10:54:36.297Z,30.49
2018-04-28T10:57:06.155Z,29.69
2018-04-28T10:59:37.360Z,29.41
2018-04-28T11:02:07.688Z,29.43
2018-04-28T11:04:38.256Z,29.24
2018-04-28T11:07:08.367Z,30.56
2018-04-28T11:09:38.277Z,29.99
2018-04-28T11:12:08.467Z,30.79
2018-04-28T11:14:38.420Z,31.70
2018-04-28T11:17:08.445Z,31.38
2018-04-28T11:19:38.743Z,32.06
2018-04-28T11:22:09.185Z,31.65
2018-04-28T11:24:39.720Z,31.27
2018-04-28T11:27:10.348Z,30.88
2018-04-28T11:29:40.377Z,30.20
2018-04-28T11:32:10.388Z,30.55
2018-04-28T11:34:41.237Z,30.82
2018-04-28T11:37:11.041Z,30.92
2018-04-28T11:39:40.855Z,31.81
2018-04-28T11:42:11.176Z,32.02
2018-04-28T11:44:41.045Z,31.00
2018-04-28T11:47:11.431Z,30.55
2018-04-28T11:49:41.639Z,30.57
2018-04-28T11:52:12.771Z,31.00
2018-04-28T11:54:43.423Z,31.53
2018-04-28T11:57:14.060Z,32.09
2018-04-28T11:59:44.908Z,31.79
2018-04-28T12:02:15.366Z,31.95
2018-04-28T12:04:46.111Z,32.42
2018-04-28T12:07:16.593Z,32.68
2018-04-28T12:09:46.890Z,31.41
2018-04-28T12:12:17.639Z,31.01
2018-04-28T12:14:48.404Z,30.94
2018-04-28T12:17:19.600Z,32.03
2018-04-28T12:19:50.096Z,32.48
2018-04-28T12:22:20.273Z,32.49
2018-04-28T12:24:50.502Z,32.13
2018-04-28T12:27:20.509Z,32.24
2018-04-28T12:29:51.597Z,32.74
2018-04-28T12:32:21.783Z,32.91
2018-04-28T12:34:51.582Z,32.92
2018-04-28T12:37:21.468Z,33.26
2018-04-28T12:39:51.423Z,32.26
2018-04-28T12:42:21.455Z,32.49
2018-04-28T12:44:51.841Z,32.69
2018-04-28T12:47:21.678Z,33.08
2018-04-28T12:49:52.296Z,32.98
2018-04-28T12:52:22.613Z,32.34
2018-04-28T12:54:53.159Z,32.85
2018-04-28T12:57:23.898Z,33.10
2018-04-28T12:59:53.720Z,33.48
2018-04-28T13:02:24.009Z,33.35
2018-04-28T13:04:55.005Z,33.47
2018-04-28T13:07:25.605Z,33.13
2018-04-28T13:09:56.005Z,33.24
2018-04-28T13:12:26.515Z,33.15
2018-04-28T13:14:57.011Z,32.72
2018-04-28T13:17:27.453Z,33.00
2018-04-28T13:19:58.163Z,33.23
2018-04-28T13:22:28.793Z,33.81
2018-04-28T13:24:59.214Z,33.29
2018-04-28T13:27:29.572Z,33.46
2018-04-28T13:29:59.941Z,33.55
2018-04-28T13:32:30.366Z,33.71
2018-04-28T13:35:00.621Z,33.40
2018-04-28T13:37:31.179Z,33.34
2018-04-28T13:40:01.640Z,33.13
2018-04-28T13:42:32.438Z,33.93
2018-04-28T13:45:02.821Z,33.61
2018-04-28T13:47:33.537Z,33.86
2018-04-28T13:50:03.900Z,33.93
2018-04-28T13:52:34.272Z,34.16
2018-04-28T13:55:04.447Z,34.09
2018-04-28T13:57:34.781Z,33.87
2018-04-28T14:00:04.593Z,33.84
2018-04-28T14:02:35.025Z,34.13
2018-04-28T14:05:05.246Z,33.89
2018-04-28T14:07:35.744Z,33.60
2018-04-28T14:10:05.616Z,33.89
2018-04-28T14:12:35.449Z,33.24
2018-04-28T14:15:05.308Z,32.67
2018-04-28T14:17:35.759Z,33.05
2018-04-28T14:20:05.772Z,33.22
2018-04-28T14:22:35.691Z,33.60
2018-04-28T14:25:05.406Z,33.71
2018-04-28T14:27:35.200Z,33.46
2018-04-28T14:30:04.938Z,33.57
2018-04-28T14:32:36.210Z,33.28
2018-04-28T14:35:06.595Z,33.02
2018-04-28T14:37:37.228Z,33.02
2018-04-28T14:40:07.977Z,32.61
2018-04-28T14:42:41.693Z,32.57
2018-04-28T14:45:12.050Z,32.26
2018-04-28T14:47:42.261Z,32.55
2018-04-28T14:50:12.381Z,32.62
2018-04-28T14:52:42.677Z,32.12
2018-04-28T14:55:13.109Z,32.02
2018-04-28T14:57:42.907Z,32.12
2018-04-28T15:00:12.676Z,32.47
2018-04-28T15:02:42.640Z,32.33
2018-04-28T15:05:12.495Z,32.41
2018-04-28T15:07:42.970Z,32.33
2018-04-28T15:10:13.477Z,32.41
2018-04-28T15:12:43.987Z,32.74
2018-04-28T15:15:14.319Z,32.18
2018-04-28T15:17:44.107Z,31.93
2018-04-28T15:20:14.217Z,31.77
2018-04-28T15:22:44.097Z,31.80
2018-04-28T15:25:14.402Z,31.98
2018-04-28T15:27:44.561Z,32.01
2018-04-28T15:30:15.242Z,31.58
2018-04-28T15:32:44.981Z,31.61
2018-04-28T15:35:15.342Z,31.31
2018-04-28T15:37:45.271Z,30.26
2018-04-28T15:40:15.309Z,30.46
2018-04-28T15:42:45.405Z,30.57
2018-04-28T15:45:15.472Z,30.24
2018-04-28T15:47:45.283Z,30.50
2018-04-28T15:50:15.250Z,30.42
2018-04-28T15:52:45.439Z,30.51
2018-04-28T15:55:16.937Z,30.61
2018-04-28T15:57:47.043Z,30.15
2018-04-28T16:00:17.154Z,29.86
2018-04-28T16:02:47.313Z,29.69
2018-04-28T16:05:17.094Z,29.52
2018-04-28T16:07:47.335Z,29.34
2018-04-28T16:10:17.596Z,29.21
2018-04-28T16:12:48.320Z,28.57
2018-04-28T16:15:18.043Z,28.76
2018-04-28T16:17:47.932Z,28.53
2018-04-28T16:20:18.283Z,28.40
2018-04-28T16:22:48.467Z,28.41
2018-04-28T16:25:18.280Z,28.37
2018-04-28T16:27:48.127Z,28.43
2018-04-28T16:30:17.853Z,28.22
2018-04-28T16:32:48.375Z,27.98
2018-04-28T16:35:18.209Z,27.94
2018-04-28T16:37:48.488Z,27.71
2018-04-28T16:40:18.768Z,27.61
2018-04-28T16:42:48.604Z,27.42
2018-04-28T16:45:19.094Z,27.22
2018-04-28T16:47:50.072Z,27.15
2018-04-28T16:50:19.989Z,27.05
2018-04-28T16:52:49.743Z,26.79
2018-04-28T16:55:20.038Z,26.67
2018-04-28T16:57:50.469Z,26.16
2018-04-28T17:00:20.841Z,25.99
2018-04-28T17:02:51.276Z,25.71
2018-04-28T17:05:21.380Z,25.48
2018-04-28T17:07:51.869Z,25.56
2018-04-28T17:10:21.793Z,25.08
2018-04-28T17:12:52.391Z,25.08
2018-04-28T17:15:22.576Z,24.97
2018-04-28T17:17:54.449Z,24.78
2018-04-28T17:20:24.648Z,24.59
2018-04-28T17:22:55.092Z,24.22
2018-04-28T17:25:24.963Z,23.96
2018-04-28T17:27:55.617Z,23.83
2018-04-28T17:30:25.732Z,23.91
2018-04-28T17:32:56.163Z,23.81
2018-04-28T17:35:26.400Z,23.72
2018-04-28T17:37:56.862Z,23.51
2018-04-28T17:40:27.138Z,23.34
2018-04-28T17:42:57.738Z,23.25
2018-04-28T17:45:28.360Z,23.23
2018-04-28T17:47:58.148Z,23.30
2018-04-28T17:50:28.972Z,23.21
2018-04-28T17:52:59.321Z,23.13
2018-04-28T17:55:29.905Z,23.10
2018-04-28T17:58:00.181Z,22.96
2018-04-28T18:00:29.981Z,22.81
2018-04-28T18:03:00.616Z,22.81
2018-04-28T18:05:30.351Z,22.67
2018-04-28T18:08:00.861Z,22.57
2018-04-28T18:10:30.616Z,22.81
2018-04-28T18:13:01.991Z,22.51
2018-04-28T18:15:32.234Z,22.31
2018-04-28T18:18:02.645Z,22.06
2018-04-28T18:20:32.339Z,22.10
2018-04-28T18:23:02.309Z,22.07
2018-04-28T18:25:32.801Z,21.95
2018-04-28T18:28:03.268Z,21.89
2018-04-28T18:30:33.885Z,21.89
2018-04-28T18:33:04.214Z,21.80
2018-04-28T18:35:34.510Z,21.67
2018-04-28T18:38:04.774Z,21.61
2018-04-28T18:40:35.092Z,21.45
2018-04-28T18:43:05.117Z,21.42
2018-04-28T18:45:35.585Z,21.20
2018-04-28T18:48:05.824Z,21.14
2018-04-28T18:50:36.072Z,21.10
2018-04-28T18:53:06.449Z,20.91
2018-04-28T18:55:36.778Z,20.78
2018-04-28T18:58:06.979Z,20.75
2018-04-28T19:00:37.312Z,20.66
2018-04-28T19:03:07.468Z,20.63
2018-04-28T19:05:37.994Z,20.75
2018-04-28T19:08:08.075Z,20.57
2018-04-28T19:10:38.610Z,20.61
2018-04-28T19:13:08.610Z,20.44
2018-04-28T19:15:38.627Z,20.26
2018-04-28T19:18:08.907Z,20.39
2018-04-28T19:20:39.385Z,20.11
2018-04-28T19:23:09.720Z,19.81
2018-04-28T19:25:39.461Z,19.86
2018-04-28T19:28:09.199Z,19.84
2018-04-28T19:30:38.979Z,19.69
2018-04-28T19:33:08.828Z,19.59
2018-04-28T19:35:38.639Z,19.49
2018-04-28T19:38:08.543Z,19.57
2018-04-28T19:40:38.308Z,19.46
2018-04-28T19:43:08.159Z,19.41
2018-04-28T19:45:37.930Z,19.23
2018-04-28T19:48:07.649Z,19.36
2018-04-28T19:50:37.434Z,19.46
2018-04-28T19:53:07.206Z,19.46
2018-04-28T19:55:37.146Z,19.39
2018-04-28T19:58:06.950Z,19.45
2018-04-28T20:00:36.692Z,19.29
2018-04-28T20:03:06.526Z,19.25
2018-04-28T20:05:36.295Z,19.31
2018-04-28T20:08:06.085Z,19.21
2018-04-28T20:10:35.806Z,19.12
2018-04-28T20:13:05.651Z,19.05
2018-04-28T20:15:35.496Z,19.05
2018-04-28T20:18:05.273Z,18.96
2018-04-28T20:20:35.096Z,18.90
2018-04-28T20:23:16.648Z,18.71
2018-04-28T20:25:46.469Z,18.55
2018-04-28T20:28:16.214Z,18.42
2018-04-28T20:30:45.991Z,18.30
2018-04-28T20:33:15.710Z,18.26
2018-04-28T20:35:45.560Z,18.24
2018-04-28T20:38:15.382Z,18.33
2018-04-28T20:40:45.171Z,18.41
2018-04-28T20:43:15.034Z,18.43
2018-04-28T20:45:44.768Z,18.44
2018-04-28T20:48:14.474Z,18.48
2018-04-28T20:50:44.236Z,18.29
2018-04-28T20:53:14.031Z,18.38
2018-04-28T20:55:44.003Z,18.28
2018-04-28T20:58:13.950Z,18.18
2018-04-28T21:00:44.106Z,18.18
2018-04-28T21:03:14.206Z,18.27
2018-04-28T21:05:44.363Z,18.22
2018-04-28T21:08:15.042Z,18.08
2018-04-28T21:10:45.872Z,17.92
2018-04-28T21:13:15.654Z,17.88
2018-04-28T21:15:45.813Z,17.77
2018-04-28T21:18:16.503Z,17.79
2018-04-28T21:20:46.967Z,17.74
2018-04-28T21:23:17.621Z,17.84
2018-04-28T21:25:47.771Z,17.83
2018-04-28T21:28:18.352Z,17.78
